Main page
METAR-TAF:

METAR-TAF

Airports :

Los Mochis International Airport

Los Mochis, Mexico

latitude: 25-41N, longitude: 109-05W, elevation: 4 m

Current weather observation

The report was made 49 minutes ago, at 20:47 UTC
Wind 17 kt from the Northwest
Temperature 25°C
Humidity 34%
Pressure 1014 hPa
Visibility: 16.1 km
Few clouds at a height of 10000 ft
Overcast at a height of 22000 ft

METAR: MMLM 162047Z 31017KT 10SM FEW100 OVC220 25/08 A2995 RMK SLP143 8/037 BINOVC HZY

Time: 14:36 (21:36 UTC)

Forecast

The report was made 4 hours and 52 minutes ago, at 16:44 UTC
Forecast valid from 16 at 18 UTC to 17 at 18 UTC
Wind 12 kt from the West
Visibility: 10 km
Scattered clouds at a height of 10000 ft
Overcast at a height of 20000 ft
From 17 at 0300 UTC
Wind kt from the North
Visibility: 10 km
Broken clouds at a height of 12000 ft
Overcast at a height of 20000 ft

TAF: MMLM 161644Z 1618/1718 26012KT P6SM SCT100 OVC200 FM170300 00000KT P6SM BKN120 OVC200

Weather observations and forecasts of more than 4000 airports (METAR and TAF reports).

The available stations are represented by yellow and red dots on the map.

Hover mouse over dot to see the name of the station.

Then click to see weather observations and forecasts.

To change the map : click on the green buttons with a black cross to zoom in, on the green button with a dash to zoom out, or on the green arrows for adjacent maps.


METAR-TAF: